sensor_id;sensor_type;location;lat;lon;timestamp;temperature;humidity
17381;DHT22;8808;52.478;13.378;2022-12-07T00:00:35;3.80;99.90
17381;DHT22;8808;52.478;13.378;2022-12-07T00:03:02;3.80;99.90
17381;DHT22;8808;52.478;13.378;2022-12-07T00:05:30;3.80;99.90
17381;DHT22;8808;52.478;13.378;2022-12-07T00:07:59;3.80;99.90
17381;DHT22;8808;52.478;13.378;2022-12-07T00:10:25;3.80;99.90
17381;DHT22;8808;52.478;13.378;2022-12-07T00:12:52;3.70;99.90
17381;DHT22;8808;52.478;13.378;2022-12-07T00:15:19;3.70;99.90
17381;DHT22;8808;52.478;13.378;2022-12-07T00:17:46;3.70;99.90
17381;DHT22;8808;52.478;13.378;2022-12-07T00:20:13;3.70;99.90
17381;DHT22;8808;52.478;13.378;2022-12-07T00:22:40;3.70;99.90
17381;DHT22;8808;52.478;13.378;2022-12-07T00:25:08;3.70;99.90
17381;DHT22;8808;52.478;13.378;2022-12-07T00:27:35;3.60;99.90
17381;DHT22;8808;52.478;13.378;2022-12-07T00:30:03;3.60;99.90
17381;DHT22;8808;52.478;13.378;2022-12-07T00:32:30;3.60;99.90
17381;DHT22;8808;52.478;13.378;2022-12-07T00:34:57;3.60;99.90
17381;DHT22;8808;52.478;13.378;2022-12-07T00:37:24;3.50;99.90
17381;DHT22;8808;52.478;13.378;2022-12-07T00:39:51;3.40;99.90
17381;DHT22;8808;52.478;13.378;2022-12-07T00:42:19;3.40;99.90
17381;DHT22;8808;52.478;13.378;2022-12-07T00:44:46;3.30;99.90
17381;DHT22;8808;52.478;13.378;2022-12-07T00:47:14;3.30;99.90
17381;DHT22;8808;52.478;13.378;2022-12-07T00:49:40;3.20;99.90
17381;DHT22;8808;52.478;13.378;2022-12-07T00:52:07;3.20;99.90
17381;DHT22;8808;52.478;13.378;2022-12-07T00:54:34;3.10;99.90
17381;DHT22;8808;52.478;13.378;2022-12-07T00:57:01;3.00;99.90
17381;DHT22;8808;52.478;13.378;2022-12-07T00:59:29;3.10;99.90
17381;DHT22;8808;52.478;13.378;2022-12-07T01:01:56;3.10;99.90
17381;DHT22;8808;52.478;13.378;2022-12-07T01:04:23;3.10;99.90
17381;DHT22;8808;52.478;13.378;2022-12-07T01:06:50;3.10;99.90
17381;DHT22;8808;52.478;13.378;2022-12-07T01:09:17;3.10;99.90
17381;DHT22;8808;52.478;13.378;2022-12-07T01:11:44;3.10;99.90
17381;DHT22;8808;52.478;13.378;2022-12-07T01:14:11;3.10;99.90
17381;DHT22;8808;52.478;13.378;2022-12-07T01:16:39;3.10;99.90
17381;DHT22;8808;52.478;13.378;2022-12-07T01:19:06;3.10;99.90
17381;DHT22;8808;52.478;13.378;2022-12-07T01:21:34;3.00;99.90
17381;DHT22;8808;52.478;13.378;2022-12-07T01:24:04;3.10;99.90
17381;DHT22;8808;52.478;13.378;2022-12-07T01:26:31;3.10;99.90
17381;DHT22;8808;52.478;13.378;2022-12-07T01:28:58;3.10;99.90
17381;DHT22;8808;52.478;13.378;2022-12-07T01:31:27;3.10;99.90
17381;DHT22;8808;52.478;13.378;2022-12-07T01:33:57;3.10;99.90
17381;DHT22;8808;52.478;13.378;2022-12-07T01:36:25;3.10;99.90
17381;DHT22;8808;52.478;13.378;2022-12-07T01:38:55;3.00;99.90
17381;DHT22;8808;52.478;13.378;2022-12-07T01:41:23;3.10;99.90
17381;DHT22;8808;52.478;13.378;2022-12-07T01:44:19;3.00;99.90
17381;DHT22;8808;52.478;13.378;2022-12-07T01:46:47;3.00;99.90
17381;DHT22;8808;52.478;13.378;2022-12-07T01:49:21;3.00;99.90
17381;DHT22;8808;52.478;13.378;2022-12-07T01:51:49;3.10;99.90
17381;DHT22;8808;52.478;13.378;2022-12-07T01:54:18;3.10;99.90
17381;DHT22;8808;52.478;13.378;2022-12-07T01:56:50;3.00;99.90
17381;DHT22;8808;52.478;13.378;2022-12-07T01:59:18;3.10;99.90
17381;DHT22;8808;52.478;13.378;2022-12-07T02:04:23;3.00;99.90
17381;DHT22;8808;52.478;13.378;2022-12-07T02:06:52;3.00;99.90
17381;DHT22;8808;52.478;13.378;2022-12-07T02:09:20;2.90;99.90
17381;DHT22;8808;52.478;13.378;2022-12-07T02:11:47;3.00;99.90
17381;DHT22;8808;52.478;13.378;2022-12-07T02:14:14;2.90;99.90
17381;DHT22;8808;52.478;13.378;2022-12-07T02:16:48;2.90;99.90
17381;DHT22;8808;52.478;13.378;2022-12-07T02:19:58;2.90;99.90
17381;DHT22;8808;52.478;13.378;2022-12-07T02:22:52;2.90;99.90
17381;DHT22;8808;52.478;13.378;2022-12-07T02:25:33;2.90;99.90
17381;DHT22;8808;52.478;13.378;2022-12-07T02:28:07;3.00;99.90
17381;DHT22;8808;52.478;13.378;2022-12-07T02:30:42;3.00;99.90
17381;DHT22;8808;52.478;13.378;2022-12-07T02:33:14;3.10;99.90
17381;DHT22;8808;52.478;13.378;2022-12-07T02:35:48;3.00;99.90
17381;DHT22;8808;52.478;13.378;2022-12-07T02:38:21;3.00;99.90
17381;DHT22;8808;52.478;13.378;2022-12-07T02:40:52;3.10;99.90
17381;DHT22;8808;52.478;13.378;2022-12-07T02:43:24;3.00;99.90
17381;DHT22;8808;52.478;13.378;2022-12-07T02:45:55;2.90;99.90
17381;DHT22;8808;52.478;13.378;2022-12-07T02:48:23;2.90;99.90
17381;DHT22;8808;52.478;13.378;2022-12-07T02:50:52;2.90;99.90
17381;DHT22;8808;52.478;13.378;2022-12-07T02:53:30;2.80;99.90
17381;DHT22;8808;52.478;13.378;2022-12-07T02:55:57;2.90;99.90
17381;DHT22;8808;52.478;13.378;2022-12-07T02:58:35;2.90;99.90
17381;DHT22;8808;52.478;13.378;2022-12-07T03:01:12;2.90;99.90
17381;DHT22;8808;52.478;13.378;2022-12-07T03:03:45;2.80;99.90
17381;DHT22;8808;52.478;13.378;2022-12-07T03:06:17;2.80;99.90
17381;DHT22;8808;52.478;13.378;2022-12-07T03:08:52;2.90;99.90
17381;DHT22;8808;52.478;13.378;2022-12-07T03:11:24;2.80;99.90
17381;DHT22;8808;52.478;13.378;2022-12-07T03:13:59;2.80;99.90
17381;DHT22;8808;52.478;13.378;2022-12-07T03:16:33;2.80;99.90
17381;DHT22;8808;52.478;13.378;2022-12-07T03:19:04;2.80;99.90
17381;DHT22;8808;52.478;13.378;2022-12-07T03:21:37;2.80;99.90
17381;DHT22;8808;52.478;13.378;2022-12-07T03:24:08;2.80;99.90
17381;DHT22;8808;52.478;13.378;2022-12-07T03:26:52;2.80;99.90
17381;DHT22;8808;52.478;13.378;2022-12-07T03:29:22;2.80;99.90
17381;DHT22;8808;52.478;13.378;2022-12-07T03:31:55;2.80;99.90
17381;DHT22;8808;52.478;13.378;2022-12-07T03:34:27;2.70;99.90
17381;DHT22;8808;52.478;13.378;2022-12-07T03:36:57;2.80;99.90
17381;DHT22;8808;52.478;13.378;2022-12-07T03:39:29;2.80;99.90
17381;DHT22;8808;52.478;13.378;2022-12-07T03:41:59;2.80;99.90
17381;DHT22;8808;52.478;13.378;2022-12-07T03:44:28;2.80;99.90
17381;DHT22;8808;52.478;13.378;2022-12-07T03:47:01;2.70;99.90
17381;DHT22;8808;52.478;13.378;2022-12-07T03:49:32;2.80;99.90
17381;DHT22;8808;52.478;13.378;2022-12-07T03:52:07;2.70;99.90
17381;DHT22;8808;52.478;13.378;2022-12-07T03:54:39;2.70;99.90
17381;DHT22;8808;52.478;13.378;2022-12-07T03:57:08;2.70;99.90
17381;DHT22;8808;52.478;13.378;2022-12-07T03:59:36;2.70;99.90
17381;DHT22;8808;52.478;13.378;2022-12-07T04:02:06;2.70;99.90
17381;DHT22;8808;52.478;13.378;2022-12-07T04:04:34;2.70;99.90
17381;DHT22;8808;52.478;13.378;2022-12-07T04:07:01;2.70;99.90
17381;DHT22;8808;52.478;13.378;2022-12-07T04:09:28;2.70;99.90
17381;DHT22;8808;52.478;13.378;2022-12-07T04:11:56;2.70;99.90
17381;DHT22;8808;52.478;13.378;2022-12-07T04:14:23;2.70;99.90
17381;DHT22;8808;52.478;13.378;2022-12-07T04:16:52;2.60;99.90
17381;DHT22;8808;52.478;13.378;2022-12-07T04:19:24;2.60;99.90
17381;DHT22;8808;52.478;13.378;2022-12-07T04:21:52;2.60;99.90
17381;DHT22;8808;52.478;13.378;2022-12-07T04:24:20;2.60;99.90
17381;DHT22;8808;52.478;13.378;2022-12-07T04:26:47;2.50;99.90
17381;DHT22;8808;52.478;13.378;2022-12-07T04:29:15;2.50;99.90
17381;DHT22;8808;52.478;13.378;2022-12-07T04:31:43;2.60;99.90
17381;DHT22;8808;52.478;13.378;2022-12-07T04:34:10;2.50;99.90
17381;DHT22;8808;52.478;13.378;2022-12-07T04:36:39;2.60;99.90
17381;DHT22;8808;52.478;13.378;2022-12-07T04:39:07;2.50;99.90
17381;DHT22;8808;52.478;13.378;2022-12-07T04:41:35;2.60;99.90
17381;DHT22;8808;52.478;13.378;2022-12-07T04:44:03;2.60;99.90
17381;DHT22;8808;52.478;13.378;2022-12-07T04:46:33;2.60;99.90
17381;DHT22;8808;52.478;13.378;2022-12-07T04:49:00;2.70;99.90
17381;DHT22;8808;52.478;13.378;2022-12-07T04:51:28;2.70;99.90
17381;DHT22;8808;52.478;13.378;2022-12-07T04:53:57;2.70;99.90
17381;DHT22;8808;52.478;13.378;2022-12-07T04:56:24;2.80;99.90
17381;DHT22;8808;52.478;13.378;2022-12-07T04:58:53;2.80;99.90
17381;DHT22;8808;52.478;13.378;2022-12-07T05:01:21;2.70;99.90
17381;DHT22;8808;52.478;13.378;2022-12-07T05:03:48;2.80;99.90
17381;DHT22;8808;52.478;13.378;2022-12-07T05:06:15;2.80;99.90
17381;DHT22;8808;52.478;13.378;2022-12-07T05:08:43;2.80;99.90
17381;DHT22;8808;52.478;13.378;2022-12-07T05:11:11;2.80;99.90
17381;DHT22;8808;52.478;13.378;2022-12-07T05:13:59;2.80;99.90
17381;DHT22;8808;52.478;13.378;2022-12-07T05:16:26;2.90;99.90
17381;DHT22;8808;52.478;13.378;2022-12-07T05:18:54;2.80;99.90
17381;DHT22;8808;52.478;13.378;2022-12-07T05:21:21;2.80;99.90
17381;DHT22;8808;52.478;13.378;2022-12-07T05:23:48;2.90;99.90
17381;DHT22;8808;52.478;13.378;2022-12-07T05:26:16;2.90;99.90
17381;DHT22;8808;52.478;13.378;2022-12-07T05:28:43;2.90;99.90
17381;DHT22;8808;52.478;13.378;2022-12-07T05:31:10;3.00;99.90
17381;DHT22;8808;52.478;13.378;2022-12-07T05:33:37;3.00;99.90
17381;DHT22;8808;52.478;13.378;2022-12-07T05:36:04;3.00;99.90
17381;DHT22;8808;52.478;13.378;2022-12-07T05:38:33;3.10;99.90
17381;DHT22;8808;52.478;13.378;2022-12-07T05:41:01;3.20;99.90
17381;DHT22;8808;52.478;13.378;2022-12-07T05:43:30;3.20;99.90
17381;DHT22;8808;52.478;13.378;2022-12-07T05:45:57;3.30;99.90
17381;DHT22;8808;52.478;13.378;2022-12-07T05:48:25;3.30;99.90
17381;DHT22;8808;52.478;13.378;2022-12-07T05:50:52;3.30;99.90
17381;DHT22;8808;52.478;13.378;2022-12-07T05:53:19;3.30;99.90
17381;DHT22;8808;52.478;13.378;2022-12-07T05:55:47;3.40;99.90
17381;DHT22;8808;52.478;13.378;2022-12-07T05:58:14;3.40;99.90
17381;DHT22;8808;52.478;13.378;2022-12-07T06:01:00;3.40;99.90
17381;DHT22;8808;52.478;13.378;2022-12-07T06:03:27;3.40;99.90
17381;DHT22;8808;52.478;13.378;2022-12-07T06:05:53;3.50;99.90
17381;DHT22;8808;52.478;13.378;2022-12-07T06:08:20;3.50;99.90
17381;DHT22;8808;52.478;13.378;2022-12-07T06:10:47;3.60;99.90
17381;DHT22;8808;52.478;13.378;2022-12-07T06:13:36;3.60;99.90
17381;DHT22;8808;52.478;13.378;2022-12-07T06:16:04;3.60;99.90
17381;DHT22;8808;52.478;13.378;2022-12-07T06:18:31;3.60;99.90
17381;DHT22;8808;52.478;13.378;2022-12-07T06:20:57;3.60;99.90
17381;DHT22;8808;52.478;13.378;2022-12-07T06:23:24;3.70;99.90
17381;DHT22;8808;52.478;13.378;2022-12-07T06:25:51;3.60;99.90
17381;DHT22;8808;52.478;13.378;2022-12-07T06:28:18;3.60;99.90
17381;DHT22;8808;52.478;13.378;2022-12-07T06:30:45;3.60;99.90
17381;DHT22;8808;52.478;13.378;2022-12-07T06:33:13;3.70;99.90
17381;DHT22;8808;52.478;13.378;2022-12-07T06:35:40;3.70;99.90
17381;DHT22;8808;52.478;13.378;2022-12-07T06:38:07;3.70;99.90
17381;DHT22;8808;52.478;13.378;2022-12-07T06:40:34;3.70;99.90
17381;DHT22;8808;52.478;13.378;2022-12-07T06:43:01;3.70;99.90
17381;DHT22;8808;52.478;13.378;2022-12-07T06:45:28;3.70;99.90
17381;DHT22;8808;52.478;13.378;2022-12-07T06:47:55;3.80;99.90
17381;DHT22;8808;52.478;13.378;2022-12-07T06:50:23;3.80;99.90
17381;DHT22;8808;52.478;13.378;2022-12-07T06:52:51;3.80;99.90
17381;DHT22;8808;52.478;13.378;2022-12-07T06:55:18;3.80;99.90
17381;DHT22;8808;52.478;13.378;2022-12-07T06:57:45;4.00;99.90
17381;DHT22;8808;52.478;13.378;2022-12-07T07:00:13;4.00;99.90
17381;DHT22;8808;52.478;13.378;2022-12-07T07:02:40;4.00;99.90
17381;DHT22;8808;52.478;13.378;2022-12-07T07:05:07;4.10;99.90
17381;DHT22;8808;52.478;13.378;2022-12-07T07:07:36;4.00;99.90
17381;DHT22;8808;52.478;13.378;2022-12-07T07:10:04;4.00;99.90
17381;DHT22;8808;52.478;13.378;2022-12-07T07:12:31;4.10;99.90
17381;DHT22;8808;52.478;13.378;2022-12-07T07:14:58;4.10;99.90
17381;DHT22;8808;52.478;13.378;2022-12-07T07:17:25;4.10;99.90
17381;DHT22;8808;52.478;13.378;2022-12-07T07:19:52;4.20;99.90
17381;DHT22;8808;52.478;13.378;2022-12-07T07:22:18;4.20;99.90
17381;DHT22;8808;52.478;13.378;2022-12-07T07:24:47;4.20;99.90
17381;DHT22;8808;52.478;13.378;2022-12-07T07:27:14;4.20;99.90
17381;DHT22;8808;52.478;13.378;2022-12-07T07:29:41;4.20;99.90
17381;DHT22;8808;52.478;13.378;2022-12-07T07:32:08;4.20;99.90
17381;DHT22;8808;52.478;13.378;2022-12-07T07:34:34;4.30;99.90
17381;DHT22;8808;52.478;13.378;2022-12-07T07:37:01;4.40;99.90
17381;DHT22;8808;52.478;13.378;2022-12-07T07:39:28;4.30;99.90
17381;DHT22;8808;52.478;13.378;2022-12-07T07:41:57;4.30;99.90
17381;DHT22;8808;52.478;13.378;2022-12-07T07:44:24;4.40;99.90
17381;DHT22;8808;52.478;13.378;2022-12-07T07:46:50;4.30;99.90
17381;DHT22;8808;52.478;13.378;2022-12-07T07:49:17;4.30;99.90
17381;DHT22;8808;52.478;13.378;2022-12-07T07:51:44;4.20;99.90
17381;DHT22;8808;52.478;13.378;2022-12-07T07:54:11;4.20;99.90
17381;DHT22;8808;52.478;13.378;2022-12-07T07:56:38;4.30;99.90
17381;DHT22;8808;52.478;13.378;2022-12-07T07:59:06;4.30;99.90
17381;DHT22;8808;52.478;13.378;2022-12-07T08:01:33;4.40;99.90
17381;DHT22;8808;52.478;13.378;2022-12-07T08:04:01;4.40;99.90
17381;DHT22;8808;52.478;13.378;2022-12-07T08:06:28;4.40;99.90
17381;DHT22;8808;52.478;13.378;2022-12-07T08:08:55;4.40;99.90
17381;DHT22;8808;52.478;13.378;2022-12-07T08:11:23;4.50;99.90
17381;DHT22;8808;52.478;13.378;2022-12-07T08:13:50;4.50;99.90
17381;DHT22;8808;52.478;13.378;2022-12-07T08:16:19;4.50;99.90
17381;DHT22;8808;52.478;13.378;2022-12-07T08:18:46;4.50;99.90
17381;DHT22;8808;52.478;13.378;2022-12-07T08:21:14;4.40;99.90
17381;DHT22;8808;52.478;13.378;2022-12-07T08:23:41;4.50;99.90
17381;DHT22;8808;52.478;13.378;2022-12-07T08:26:11;4.50;99.90
17381;DHT22;8808;52.478;13.378;2022-12-07T08:28:38;4.60;99.90
17381;DHT22;8808;52.478;13.378;2022-12-07T08:31:07;4.50;99.90
17381;DHT22;8808;52.478;13.378;2022-12-07T08:33:36;4.50;99.90
17381;DHT22;8808;52.478;13.378;2022-12-07T08:36:05;4.60;99.90
17381;DHT22;8808;52.478;13.378;2022-12-07T08:38:34;4.50;99.90
17381;DHT22;8808;52.478;13.378;2022-12-07T08:41:01;4.50;99.90
17381;DHT22;8808;52.478;13.378;2022-12-07T08:43:29;4.60;99.90
17381;DHT22;8808;52.478;13.378;2022-12-07T08:46:04;4.60;99.90
17381;DHT22;8808;52.478;13.378;2022-12-07T08:48:33;4.60;99.90
17381;DHT22;8808;52.478;13.378;2022-12-07T08:51:03;4.60;99.90
17381;DHT22;8808;52.478;13.378;2022-12-07T08:53:30;4.60;99.90
17381;DHT22;8808;52.478;13.378;2022-12-07T08:55:57;4.60;99.90
17381;DHT22;8808;52.478;13.378;2022-12-07T08:58:24;4.60;99.90
17381;DHT22;8808;52.478;13.378;2022-12-07T09:00:51;4.60;99.90
17381;DHT22;8808;52.478;13.378;2022-12-07T09:03:18;4.60;99.90
17381;DHT22;8808;52.478;13.378;2022-12-07T09:05:45;4.60;99.90
17381;DHT22;8808;52.478;13.378;2022-12-07T09:08:13;4.60;99.90
17381;DHT22;8808;52.478;13.378;2022-12-07T09:10:40;4.70;99.90
17381;DHT22;8808;52.478;13.378;2022-12-07T09:13:07;4.80;99.90
17381;DHT22;8808;52.478;13.378;2022-12-07T09:15:34;4.70;99.90
17381;DHT22;8808;52.478;13.378;2022-12-07T09:18:01;4.60;99.90
17381;DHT22;8808;52.478;13.378;2022-12-07T09:20:28;4.70;99.90
17381;DHT22;8808;52.478;13.378;2022-12-07T09:22:55;4.70;99.90
17381;DHT22;8808;52.478;13.378;2022-12-07T09:25:23;4.70;99.90
17381;DHT22;8808;52.478;13.378;2022-12-07T09:27:55;5.60;99.90
17381;DHT22;8808;52.478;13.378;2022-12-07T09:30:22;4.90;99.90
17381;DHT22;8808;52.478;13.378;2022-12-07T09:32:49;4.90;99.90
17381;DHT22;8808;52.478;13.378;2022-12-07T09:35:16;4.70;99.90
17381;DHT22;8808;52.478;13.378;2022-12-07T09:37:43;4.60;99.90
17381;DHT22;8808;52.478;13.378;2022-12-07T09:40:10;4.50;99.90
17381;DHT22;8808;52.478;13.378;2022-12-07T09:42:41;4.50;99.90
17381;DHT22;8808;52.478;13.378;2022-12-07T09:45:15;4.50;99.90
17381;DHT22;8808;52.478;13.378;2022-12-07T09:47:43;4.70;99.90
17381;DHT22;8808;52.478;13.378;2022-12-07T09:50:14;4.60;99.90
17381;DHT22;8808;52.478;13.378;2022-12-07T09:52:43;4.80;99.90
17381;DHT22;8808;52.478;13.378;2022-12-07T09:55:13;4.60;99.90
17381;DHT22;8808;52.478;13.378;2022-12-07T09:57:42;5.10;99.90
17381;DHT22;8808;52.478;13.378;2022-12-07T10:00:14;4.50;99.90
17381;DHT22;8808;52.478;13.378;2022-12-07T10:02:43;4.40;99.90
17381;DHT22;8808;52.478;13.378;2022-12-07T10:05:14;4.40;99.90
17381;DHT22;8808;52.478;13.378;2022-12-07T10:07:42;4.40;99.90
17381;DHT22;8808;52.478;13.378;2022-12-07T10:10:15;4.40;99.90
17381;DHT22;8808;52.478;13.378;2022-12-07T10:12:56;4.50;99.90
17381;DHT22;8808;52.478;13.378;2022-12-07T10:15:23;4.30;99.90
17381;DHT22;8808;52.478;13.378;2022-12-07T10:18:13;4.40;99.90
17381;DHT22;8808;52.478;13.378;2022-12-07T10:20:44;4.40;99.90
17381;DHT22;8808;52.478;13.378;2022-12-07T10:23:15;4.40;99.90
17381;DHT22;8808;52.478;13.378;2022-12-07T10:25:42;4.30;99.90
17381;DHT22;8808;52.478;13.378;2022-12-07T10:28:14;4.50;99.90
17381;DHT22;8808;52.478;13.378;2022-12-07T10:30:53;4.50;99.90
17381;DHT22;8808;52.478;13.378;2022-12-07T10:33:35;4.50;99.90
17381;DHT22;8808;52.478;13.378;2022-12-07T10:36:18;4.50;99.90
17381;DHT22;8808;52.478;13.378;2022-12-07T10:38:47;4.50;99.90
17381;DHT22;8808;52.478;13.378;2022-12-07T10:41:15;4.50;99.90
17381;DHT22;8808;52.478;13.378;2022-12-07T10:43:54;4.50;99.90
17381;DHT22;8808;52.478;13.378;2022-12-07T10:46:47;4.50;99.90
17381;DHT22;8808;52.478;13.378;2022-12-07T10:52:44;4.50;99.90
17381;DHT22;8808;52.478;13.378;2022-12-07T10:55:20;4.50;99.90
17381;DHT22;8808;52.478;13.378;2022-12-07T10:58:01;4.50;99.90
17381;DHT22;8808;52.478;13.378;2022-12-07T11:00:37;4.50;99.90
17381;DHT22;8808;52.478;13.378;2022-12-07T11:03:26;4.60;99.90
17381;DHT22;8808;52.478;13.378;2022-12-07T11:06:02;4.50;99.90
17381;DHT22;8808;52.478;13.378;2022-12-07T11:08:48;4.60;99.90
17381;DHT22;8808;52.478;13.378;2022-12-07T11:11:25;4.70;99.90
17381;DHT22;8808;52.478;13.378;2022-12-07T11:14:02;4.70;99.90
17381;DHT22;8808;52.478;13.378;2022-12-07T11:16:48;4.60;99.90
17381;DHT22;8808;52.478;13.378;2022-12-07T11:19:33;4.70;99.90
17381;DHT22;8808;52.478;13.378;2022-12-07T11:22:06;4.70;99.90
17381;DHT22;8808;52.478;13.378;2022-12-07T11:24:43;4.70;99.90
17381;DHT22;8808;52.478;13.378;2022-12-07T11:27:22;4.70;99.90
17381;DHT22;8808;52.478;13.378;2022-12-07T11:29:59;4.80;99.90
17381;DHT22;8808;52.478;13.378;2022-12-07T11:32:44;4.80;99.90
17381;DHT22;8808;52.478;13.378;2022-12-07T11:35:21;4.80;99.90
17381;DHT22;8808;52.478;13.378;2022-12-07T11:37:56;4.70;99.90
17381;DHT22;8808;52.478;13.378;2022-12-07T11:40:26;4.70;99.90
17381;DHT22;8808;52.478;13.378;2022-12-07T11:42:58;4.80;99.90
17381;DHT22;8808;52.478;13.378;2022-12-07T11:45:27;4.80;99.90
17381;DHT22;8808;52.478;13.378;2022-12-07T11:47:59;4.90;99.90
17381;DHT22;8808;52.478;13.378;2022-12-07T11:50:31;4.90;99.90
17381;DHT22;8808;52.478;13.378;2022-12-07T11:53:02;4.90;99.90
17381;DHT22;8808;52.478;13.378;2022-12-07T11:55:37;4.80;99.90
17381;DHT22;8808;52.478;13.378;2022-12-07T11:58:18;4.80;99.90
17381;DHT22;8808;52.478;13.378;2022-12-07T12:00:47;4.90;99.90
17381;DHT22;8808;52.478;13.378;2022-12-07T12:03:22;5.00;99.90
17381;DHT22;8808;52.478;13.378;2022-12-07T12:05:50;5.00;99.90
17381;DHT22;8808;52.478;13.378;2022-12-07T12:08:20;4.90;99.90
17381;DHT22;8808;52.478;13.378;2022-12-07T12:10:57;5.00;99.90
17381;DHT22;8808;52.478;13.378;2022-12-07T12:13:44;5.00;99.90
17381;DHT22;8808;52.478;13.378;2022-12-07T12:19:22;5.10;99.90
17381;DHT22;8808;52.478;13.378;2022-12-07T12:21:55;5.10;99.90
17381;DHT22;8808;52.478;13.378;2022-12-07T12:24:25;5.10;99.90
17381;DHT22;8808;52.478;13.378;2022-12-07T12:26:57;5.10;99.90
17381;DHT22;8808;52.478;13.378;2022-12-07T12:29:32;5.00;99.90
17381;DHT22;8808;52.478;13.378;2022-12-07T12:32:12;5.10;99.90
17381;DHT22;8808;52.478;13.378;2022-12-07T12:34:56;5.10;99.90
17381;DHT22;8808;52.478;13.378;2022-12-07T12:37:41;5.10;99.90
17381;DHT22;8808;52.478;13.378;2022-12-07T12:43:40;5.10;99.90
17381;DHT22;8808;52.478;13.378;2022-12-07T12:49:38;5.00;99.90
17381;DHT22;8808;52.478;13.378;2022-12-07T12:58:39;5.10;99.90
17381;DHT22;8808;52.478;13.378;2022-12-07T13:04:24;5.20;99.90
17381;DHT22;8808;52.478;13.378;2022-12-07T13:06:52;5.20;99.90
17381;DHT22;8808;52.478;13.378;2022-12-07T13:09:21;5.20;99.90
17381;DHT22;8808;52.478;13.378;2022-12-07T13:11:56;5.20;99.90
17381;DHT22;8808;52.478;13.378;2022-12-07T13:14:55;5.30;99.90
17381;DHT22;8808;52.478;13.378;2022-12-07T13:18:00;5.20;99.90
17381;DHT22;8808;52.478;13.378;2022-12-07T13:20:56;5.20;99.90
17381;DHT22;8808;52.478;13.378;2022-12-07T13:23:26;5.30;99.90
17381;DHT22;8808;52.478;13.378;2022-12-07T13:26:04;5.30;99.90
17381;DHT22;8808;52.478;13.378;2022-12-07T13:28:38;5.30;99.90
17381;DHT22;8808;52.478;13.378;2022-12-07T13:31:30;5.30;99.90
17381;DHT22;8808;52.478;13.378;2022-12-07T13:33:58;5.30;99.90
17381;DHT22;8808;52.478;13.378;2022-12-07T13:36:27;5.30;99.90
17381;DHT22;8808;52.478;13.378;2022-12-07T13:38:56;5.30;99.90
17381;DHT22;8808;52.478;13.378;2022-12-07T13:41:24;5.20;99.90
17381;DHT22;8808;52.478;13.378;2022-12-07T13:44:00;5.30;99.90
17381;DHT22;8808;52.478;13.378;2022-12-07T13:46:40;5.30;99.90
17381;DHT22;8808;52.478;13.378;2022-12-07T13:49:18;5.20;99.90
17381;DHT22;8808;52.478;13.378;2022-12-07T13:51:45;5.10;99.90
17381;DHT22;8808;52.478;13.378;2022-12-07T13:54:13;5.10;99.90
17381;DHT22;8808;52.478;13.378;2022-12-07T13:56:40;5.20;99.90
17381;DHT22;8808;52.478;13.378;2022-12-07T13:59:14;5.20;99.90
17381;DHT22;8808;52.478;13.378;2022-12-07T14:01:41;5.20;99.90
17381;DHT22;8808;52.478;13.378;2022-12-07T14:04:33;5.20;99.90
17381;DHT22;8808;52.478;13.378;2022-12-07T14:07:00;5.20;99.90
17381;DHT22;8808;52.478;13.378;2022-12-07T14:09:29;5.30;99.90
17381;DHT22;8808;52.478;13.378;2022-12-07T14:11:57;5.20;99.90
17381;DHT22;8808;52.478;13.378;2022-12-07T14:14:29;5.20;99.90
17381;DHT22;8808;52.478;13.378;2022-12-07T14:16:59;5.20;99.90
17381;DHT22;8808;52.478;13.378;2022-12-07T14:19:43;5.30;99.90
17381;DHT22;8808;52.478;13.378;2022-12-07T14:22:21;5.10;99.90
17381;DHT22;8808;52.478;13.378;2022-12-07T14:24:48;5.10;99.90
17381;DHT22;8808;52.478;13.378;2022-12-07T14:27:18;5.10;99.90
17381;DHT22;8808;52.478;13.378;2022-12-07T14:29:47;5.20;99.90
17381;DHT22;8808;52.478;13.378;2022-12-07T14:32:20;5.00;99.90
17381;DHT22;8808;52.478;13.378;2022-12-07T14:34:56;5.00;99.90
17381;DHT22;8808;52.478;13.378;2022-12-07T14:37:23;5.00;99.90
17381;DHT22;8808;52.478;13.378;2022-12-07T14:39:50;4.90;99.90
17381;DHT22;8808;52.478;13.378;2022-12-07T14:42:17;5.00;99.90
17381;DHT22;8808;52.478;13.378;2022-12-07T14:44:46;5.10;99.90
17381;DHT22;8808;52.478;13.378;2022-12-07T14:47:13;5.10;99.90
17381;DHT22;8808;52.478;13.378;2022-12-07T14:49:40;5.00;99.90
17381;DHT22;8808;52.478;13.378;2022-12-07T14:52:12;5.00;99.90
17381;DHT22;8808;52.478;13.378;2022-12-07T14:54:41;4.90;99.90
17381;DHT22;8808;52.478;13.378;2022-12-07T14:57:09;4.90;99.90
17381;DHT22;8808;52.478;13.378;2022-12-07T14:59:37;4.90;99.90
17381;DHT22;8808;52.478;13.378;2022-12-07T15:02:05;4.90;99.90
17381;DHT22;8808;52.478;13.378;2022-12-07T15:04:33;4.70;99.90
17381;DHT22;8808;52.478;13.378;2022-12-07T15:07:01;4.80;99.90
17381;DHT22;8808;52.478;13.378;2022-12-07T15:09:28;4.80;99.90
17381;DHT22;8808;52.478;13.378;2022-12-07T15:11:56;4.70;99.90
17381;DHT22;8808;52.478;13.378;2022-12-07T15:14:22;4.70;99.90
17381;DHT22;8808;52.478;13.378;2022-12-07T15:16:49;4.60;99.90
17381;DHT22;8808;52.478;13.378;2022-12-07T15:19:19;4.60;99.90
17381;DHT22;8808;52.478;13.378;2022-12-07T15:21:48;4.60;99.90
17381;DHT22;8808;52.478;13.378;2022-12-07T15:24:15;4.40;99.90
17381;DHT22;8808;52.478;13.378;2022-12-07T15:26:43;4.40;99.90
17381;DHT22;8808;52.478;13.378;2022-12-07T15:29:10;4.50;99.90
17381;DHT22;8808;52.478;13.378;2022-12-07T15:31:40;4.40;99.90
17381;DHT22;8808;52.478;13.378;2022-12-07T15:34:07;4.50;99.90
17381;DHT22;8808;52.478;13.378;2022-12-07T15:36:35;4.40;99.90
17381;DHT22;8808;52.478;13.378;2022-12-07T15:39:03;4.50;99.90
17381;DHT22;8808;52.478;13.378;2022-12-07T15:41:30;4.60;99.90
17381;DHT22;8808;52.478;13.378;2022-12-07T15:43:57;4.60;99.90
17381;DHT22;8808;52.478;13.378;2022-12-07T15:46:42;4.60;99.90
17381;DHT22;8808;52.478;13.378;2022-12-07T15:49:11;4.60;99.90
17381;DHT22;8808;52.478;13.378;2022-12-07T15:51:40;4.60;99.90
17381;DHT22;8808;52.478;13.378;2022-12-07T15:54:08;4.60;99.90
17381;DHT22;8808;52.478;13.378;2022-12-07T15:56:38;4.50;99.90
17381;DHT22;8808;52.478;13.378;2022-12-07T15:59:05;4.50;99.90
17381;DHT22;8808;52.478;13.378;2022-12-07T16:01:32;4.60;99.90
17381;DHT22;8808;52.478;13.378;2022-12-07T16:03:59;4.60;99.90
17381;DHT22;8808;52.478;13.378;2022-12-07T16:06:26;4.50;99.90
17381;DHT22;8808;52.478;13.378;2022-12-07T16:08:55;4.40;99.90
17381;DHT22;8808;52.478;13.378;2022-12-07T16:11:22;4.40;99.90
17381;DHT22;8808;52.478;13.378;2022-12-07T16:13:49;4.40;99.90
17381;DHT22;8808;52.478;13.378;2022-12-07T16:16:17;4.40;99.90
17381;DHT22;8808;52.478;13.378;2022-12-07T16:18:46;4.30;99.90
17381;DHT22;8808;52.478;13.378;2022-12-07T16:21:14;4.30;99.90
17381;DHT22;8808;52.478;13.378;2022-12-07T16:23:41;4.20;99.90
17381;DHT22;8808;52.478;13.378;2022-12-07T16:26:11;4.20;99.90
17381;DHT22;8808;52.478;13.378;2022-12-07T16:28:39;4.10;99.90
17381;DHT22;8808;52.478;13.378;2022-12-07T16:31:08;4.10;99.90